Time;durP1;ratioP1;P1;durP2;ratioP2;P2;SDS_P1;SDS_P2;PMS_P1;PMS_P2;Temp;Humidity;BMP_temperature;BMP_pressure;BME280_temperature;BME280_humidity;BME280_pressure;Samples;Min_cycle;Max_cycle;Signal;HPM_P1;HPM_P2
2021/04/19 00:01:28;;;;;;;3.97;3.38;;;10.70;67.50;;;;;;5070954;28;20024;-62
2021/04/19 00:03:54;;;;;;;4.45;3.65;;;10.70;67.30;;;;;;5069060;28;20103;-61
2021/04/19 00:06:20;;;;;;;4.10;3.42;;;10.60;67.30;;;;;;5070553;28;20028;-61
2021/04/19 00:08:45;;;;;;;5.68;3.40;;;10.70;67.40;;;;;;5072267;28;20166;-61
2021/04/19 00:11:11;;;;;;;4.25;3.65;;;10.60;67.40;;;;;;5071173;28;20231;-61
2021/04/19 00:13:36;;;;;;;5.28;3.70;;;10.60;67.40;;;;;;5065474;28;20037;-61
2021/04/19 00:16:02;;;;;;;4.30;3.58;;;10.60;67.40;;;;;;5080843;28;20028;-61
2021/04/19 00:18:28;;;;;;;4.70;4.00;;;10.60;67.60;;;;;;5067045;28;20024;-61
2021/04/19 00:20:53;;;;;;;4.95;3.55;;;10.50;67.40;;;;;;5066419;28;20509;-61
2021/04/19 00:23:19;;;;;;;4.07;3.40;;;10.50;67.60;;;;;;5068258;28;20346;-61
2021/04/19 00:25:44;;;;;;;4.35;3.67;;;10.50;67.60;;;;;;5073548;28;20021;-61
2021/04/19 00:28:09;;;;;;;4.75;3.90;;;10.50;67.50;;;;;;5072130;28;20016;-61
2021/04/19 00:30:35;;;;;;;4.72;3.50;;;10.50;67.60;;;;;;5071867;28;20479;-61
2021/04/19 00:33:01;;;;;;;4.00;3.60;;;10.40;67.70;;;;;;5066498;28;20045;-61
2021/04/19 00:35:26;;;;;;;4.63;3.92;;;10.50;67.70;;;;;;5052573;28;20037;-61
2021/04/19 00:37:52;;;;;;;4.10;3.60;;;10.40;67.60;;;;;;5057085;28;20029;-61
2021/04/19 00:40:18;;;;;;;4.95;3.53;;;10.50;67.70;;;;;;5072748;28;20483;-62
2021/04/19 00:42:45;;;;;;;3.97;3.53;;;10.40;67.70;;;;;;5067757;28;20100;-61
2021/04/19 00:45:11;;;;;;;4.65;3.33;;;10.40;67.70;;;;;;5071613;28;20493;-61
2021/04/19 00:47:37;;;;;;;5.60;4.15;;;10.40;67.80;;;;;;5066257;28;20071;-61
2021/04/19 00:50:05;;;;;;;4.10;3.65;;;10.40;67.80;;;;;;5054346;28;20040;-61
2021/04/19 00:52:31;;;;;;;4.75;3.50;;;10.40;67.80;;;;;;5054851;28;20028;-61
2021/04/19 00:54:56;;;;;;;4.30;3.53;;;10.40;67.90;;;;;;5061951;28;20028;-61
2021/04/19 00:57:22;;;;;;;4.00;3.53;;;10.40;67.90;;;;;;5080136;28;20020;-61
2021/04/19 00:59:47;;;;;;;4.00;3.50;;;10.40;67.90;;;;;;5079400;28;20699;-61
2021/04/19 01:02:13;;;;;;;4.47;3.78;;;10.30;67.80;;;;;;5067936;28;20032;-61
2021/04/19 01:04:38;;;;;;;4.07;3.35;;;10.30;67.90;;;;;;5073922;28;20032;-61
2021/04/19 01:07:04;;;;;;;3.88;3.47;;;10.30;67.80;;;;;;5069081;28;20081;-61
2021/04/19 01:09:29;;;;;;;4.95;4.32;;;10.30;68.00;;;;;;5071758;28;20033;-61
2021/04/19 01:11:55;;;;;;;4.03;3.63;;;10.30;67.80;;;;;;5062014;28;20028;-62
2021/04/19 01:14:20;;;;;;;4.07;3.65;;;10.30;68.10;;;;;;5068191;28;20111;-61
2021/04/19 01:16:46;;;;;;;4.50;3.78;;;10.30;68.00;;;;;;5076547;28;20033;-61
2021/04/19 01:19:11;;;;;;;4.35;3.90;;;10.30;68.00;;;;;;5073073;28;20383;-61
2021/04/19 01:21:37;;;;;;;3.80;3.40;;;10.30;68.00;;;;;;5078768;28;20786;-61
2021/04/19 01:24:03;;;;;;;4.40;3.63;;;10.20;68.00;;;;;;5081343;28;20406;-61
2021/04/19 01:26:28;;;;;;;4.38;3.97;;;10.20;68.10;;;;;;5074707;28;20623;-60
2021/04/19 01:28:54;;;;;;;5.68;3.70;;;10.20;68.00;;;;;;5075011;28;20387;-61
2021/04/19 01:31:19;;;;;;;4.38;3.97;;;10.20;68.00;;;;;;5076479;28;20036;-62
2021/04/19 01:33:45;;;;;;;5.93;3.95;;;10.20;68.00;;;;;;5076238;28;20020;-61
2021/04/19 01:36:10;;;;;;;4.75;3.83;;;10.20;68.10;;;;;;5059879;28;20031;-61
2021/04/19 01:38:36;;;;;;;4.20;3.80;;;10.20;68.10;;;;;;5077776;28;20472;-61
2021/04/19 01:41:01;;;;;;;4.38;3.72;;;10.10;68.10;;;;;;5070644;28;20035;-61
2021/04/19 01:43:27;;;;;;;4.43;3.80;;;10.10;68.10;;;;;;5072021;28;20404;-61
2021/04/19 01:45:53;;;;;;;3.58;3.28;;;10.10;68.20;;;;;;5081379;28;20080;-61
2021/04/19 01:48:23;;;;;;;4.25;3.85;;;10.10;68.30;;;;;;5066913;28;20031;-61
2021/04/19 01:50:49;;;;;;;3.95;3.55;;;10.10;68.30;;;;;;5072142;28;20396;-61
2021/04/19 01:53:15;;;;;;;3.95;3.55;;;10.10;68.30;;;;;;5069757;28;20048;-61
2021/04/19 01:55:40;;;;;;;4.07;3.63;;;10.00;68.30;;;;;;5077320;28;20346;-61
2021/04/19 01:58:08;;;;;;;3.95;3.30;;;10.00;68.40;;;;;;5079955;28;20392;-61
2021/04/19 02:00:34;;;;;;;4.50;3.58;;;10.00;68.40;;;;;;5053508;28;20025;-61
2021/04/19 02:03:08;;;;;;;4.43;4.03;;;10.00;68.50;;;;;;5082313;28;20455;-61
2021/04/19 02:05:47;;;;;;;5.68;3.55;;;10.00;68.50;;;;;;5060061;28;20035;-61
2021/04/19 02:08:54;;;;;;;4.15;3.58;;;10.00;68.50;;;;;;5070928;28;20365;-61
2021/04/19 02:11:32;;;;;;;4.32;3.83;;;9.90;68.50;;;;;;5039758;28;20040;-61
2021/04/19 02:14:06;;;;;;;4.47;3.72;;;9.90;68.70;;;;;;5076124;28;20487;-61
2021/04/19 02:16:52;;;;;;;4.68;3.70;;;9.90;68.70;;;;;;5063630;28;20028;-61
2021/04/19 02:19:55;;;;;;;4.43;4.00;;;9.90;68.80;;;;;;5051871;28;20064;-61
2021/04/19 02:22:36;;;;;;;4.30;3.90;;;9.80;68.80;;;;;;5063441;28;20048;-61
2021/04/19 02:25:14;;;;;;;5.47;4.05;;;9.80;68.90;;;;;;5074160;28;20120;-61
2021/04/19 02:27:41;;;;;;;5.80;4.03;;;9.80;68.90;;;;;;5071215;28;20488;-61
2021/04/19 02:30:09;;;;;;;4.57;3.80;;;9.80;68.90;;;;;;5071798;28;20031;-61
2021/04/19 02:32:36;;;;;;;4.95;3.78;;;9.80;68.90;;;;;;5055141;28;20040;-61
2021/04/19 02:35:09;;;;;;;5.07;4.30;;;9.80;69.00;;;;;;5053869;28;20089;-61
2021/04/19 02:37:35;;;;;;;5.43;3.97;;;9.80;69.00;;;;;;5077149;28;20048;-61
2021/04/19 02:40:01;;;;;;;4.43;3.95;;;9.70;68.90;;;;;;5036821;28;20406;-61
2021/04/19 02:42:27;;;;;;;4.40;3.92;;;9.70;69.00;;;;;;5071153;28;20218;-62
2021/04/19 02:44:52;;;;;;;4.20;3.63;;;9.70;69.00;;;;;;5061811;28;20020;-61
2021/04/19 02:47:20;;;;;;;4.55;3.97;;;9.70;69.00;;;;;;5047858;28;20083;-61
2021/04/19 02:49:45;;;;;;;4.50;3.70;;;9.70;69.10;;;;;;5072428;28;20119;-61
2021/04/19 02:52:11;;;;;;;4.55;3.85;;;9.70;69.10;;;;;;5072061;28;20111;-61
2021/04/19 02:54:40;;;;;;;3.90;3.50;;;9.60;69.20;;;;;;5071026;28;20127;-61
2021/04/19 02:57:29;;;;;;;5.05;4.32;;;9.60;69.10;;;;;;5076299;28;20028;-61
2021/04/19 02:59:55;;;;;;;4.90;3.80;;;9.60;69.20;;;;;;5071009;28;20020;-61
2021/04/19 03:02:24;;;;;;;4.75;4.25;;;9.50;69.20;;;;;;5074711;28;20024;-61
2021/04/19 03:04:50;;;;;;;5.28;4.00;;;9.60;69.30;;;;;;5075932;28;20117;-61
2021/04/19 03:07:16;;;;;;;5.32;3.88;;;9.50;69.30;;;;;;5055906;28;20128;-61
2021/04/19 03:09:51;;;;;;;4.40;4.00;;;9.50;69.30;;;;;;5077147;28;20141;-61
2021/04/19 03:12:17;;;;;;;4.63;4.15;;;9.50;69.40;;;;;;5072782;28;20032;-61
2021/04/19 03:14:46;;;;;;;4.55;3.97;;;9.50;69.30;;;;;;5069633;28;20101;-61
2021/04/19 03:17:13;;;;;;;4.55;4.15;;;9.50;69.30;;;;;;5068241;28;20033;-61
2021/04/19 03:19:45;;;;;;;4.63;4.13;;;9.50;70.00;;;;;;5060125;28;20020;-61
2021/04/19 03:22:10;;;;;;;4.22;3.83;;;9.50;69.40;;;;;;5028892;28;20056;-61
2021/04/19 03:24:36;;;;;;;4.85;4.35;;;9.50;69.30;;;;;;5051214;28;20067;-61
2021/04/19 03:27:02;;;;;;;5.20;4.32;;;9.50;69.40;;;;;;5081449;28;20029;-61
2021/04/19 03:29:27;;;;;;;4.50;3.95;;;9.50;69.50;;;;;;5060421;28;20107;-61
2021/04/19 03:31:55;;;;;;;4.72;3.97;;;9.50;69.30;;;;;;5041867;28;20079;-60
2021/04/19 03:34:26;;;;;;;4.15;3.75;;;9.40;69.40;;;;;;5072916;28;20012;-61
2021/04/19 03:37:05;;;;;;;4.47;4.07;;;9.40;69.50;;;;;;5065307;28;20040;-61
2021/04/19 03:39:31;;;;;;;4.90;4.25;;;9.40;69.60;;;;;;5051638;28;20025;-61
2021/04/19 03:41:56;;;;;;;4.40;4.00;;;9.30;69.50;;;;;;5047694;28;20032;-61
2021/04/19 03:44:28;;;;;;;4.28;3.60;;;9.40;69.50;;;;;;5068862;28;20027;-61
2021/04/19 03:46:54;;;;;;;4.68;4.10;;;9.30;69.40;;;;;;5035582;28;20053;-61
2021/04/19 03:49:28;;;;;;;6.72;4.47;;;9.30;69.60;;;;;;5012544;28;20037;-61
2021/04/19 03:51:56;;;;;;;4.68;3.92;;;9.30;69.70;;;;;;5022313;28;20048;-61
2021/04/19 03:54:23;;;;;;;4.85;4.20;;;9.30;70.20;;;;;;4996646;28;20021;-61
2021/04/19 03:56:49;;;;;;;4.60;4.10;;;9.20;69.70;;;;;;5032275;28;20021;-61
2021/04/19 03:59:15;;;;;;;4.40;4.00;;;9.20;69.60;;;;;;5027610;28;20530;-60
2021/04/19 04:01:41;;;;;;;4.88;4.07;;;9.20;69.70;;;;;;5032088;28;20075;-61
2021/04/19 04:04:06;;;;;;;4.60;4.18;;;9.20;69.70;;;;;;5025424;28;20032;-60
2021/04/19 04:06:32;;;;;;;6.15;4.32;;;9.20;70.00;;;;;;5020276;28;20056;-61
2021/04/19 04:08:58;;;;;;;4.28;3.88;;;9.20;69.90;;;;;;5062835;28;20024;-61
2021/04/19 04:11:23;;;;;;;5.57;4.35;;;9.10;69.70;;;;;;5048643;28;20028;-61
2021/04/19 04:13:49;;;;;;;4.60;3.80;;;9.10;69.80;;;;;;5020319;28;20535;-61
2021/04/19 04:16:14;;;;;;;5.38;4.30;;;9.10;69.80;;;;;;5021013;28;20610;-61
2021/04/19 04:18:40;;;;;;;4.70;4.20;;;9.10;69.90;;;;;;5056544;28;20495;-61
2021/04/19 04:21:06;;;;;;;4.70;4.13;;;9.10;69.90;;;;;;5061530;28;20021;-61
2021/04/19 04:23:31;;;;;;;4.70;4.22;;;9.10;70.00;;;;;;5016072;28;20033;-61
2021/04/19 04:25:57;;;;;;;5.55;4.50;;;9.10;69.80;;;;;;5038154;28;20025;-61
2021/04/19 04:28:22;;;;;;;5.97;4.13;;;9.00;69.90;;;;;;5031285;28;20025;-61
2021/04/19 04:30:47;;;;;;;4.22;3.72;;;9.00;70.00;;;;;;5041355;28;20399;-61
2021/04/19 04:33:13;;;;;;;4.43;4.03;;;9.10;70.10;;;;;;5038988;28;20028;-61
2021/04/19 04:35:39;;;;;;;4.47;4.05;;;9.00;70.10;;;;;;5051673;28;20029;-61
2021/04/19 04:38:04;;;;;;;4.60;4.15;;;8.90;70.10;;;;;;5025672;28;20021;-61
2021/04/19 04:40:30;;;;;;;4.82;4.32;;;8.90;70.20;;;;;;5041977;28;20246;-61
2021/04/19 04:43:20;;;;;;;5.05;4.15;;;8.90;70.30;;;;;;5037505;28;20395;-62
2021/04/19 04:45:46;;;;;;;4.88;4.18;;;8.90;70.30;;;;;;5042931;28;20102;-61
2021/04/19 04:48:34;;;;;;;5.07;4.57;;;8.90;70.40;;;;;;5030128;28;20035;-61
2021/04/19 04:51:04;;;;;;;5.38;4.53;;;8.80;70.40;;;;;;5008897;28;20045;-61
2021/04/19 04:53:35;;;;;;;4.75;4.25;;;8.80;70.30;;;;;;5011666;28;20025;-61
2021/04/19 04:56:01;;;;;;;5.75;4.72;;;8.80;70.30;;;;;;5011968;28;20104;-60
2021/04/19 04:58:27;;;;;;;5.80;4.50;;;8.80;70.30;;;;;;5017375;28;20120;-61
2021/04/19 05:00:53;;;;;;;4.47;3.90;;;8.80;70.40;;;;;;5036387;28;20029;-61
2021/04/19 05:03:19;;;;;;;5.50;4.50;;;8.80;70.50;;;;;;5014119;28;20029;-61
2021/04/19 05:05:44;;;;;;;5.30;4.80;;;8.80;70.50;;;;;;5026588;28;20110;-61
2021/04/19 05:08:13;;;;;;;4.72;4.20;;;8.70;70.60;;;;;;5025253;28;20309;-61
2021/04/19 05:10:39;;;;;;;5.53;4.57;;;8.70;70.40;;;;;;5014585;28;20045;-61
2021/04/19 05:13:31;;;;;;;5.18;4.38;;;8.70;70.40;;;;;;5003833;28;20037;-61
2021/04/19 05:15:56;;;;;;;5.10;4.25;;;8.70;70.60;;;;;;5029570;28;20033;-61
2021/04/19 05:18:22;;;;;;;5.22;4.57;;;8.80;70.60;;;;;;5013514;28;20430;-61
2021/04/19 05:20:48;;;;;;;5.63;4.38;;;8.70;70.60;;;;;;5014035;28;20056;-61
2021/04/19 05:23:15;;;;;;;6.72;4.35;;;8.70;70.70;;;;;;5008261;28;20117;-61
2021/04/19 05:25:40;;;;;;;5.38;4.63;;;8.60;70.50;;;;;;5014369;28;20041;-61
2021/04/19 05:28:06;;;;;;;5.63;4.65;;;8.70;70.50;;;;;;4997018;28;20033;-61
2021/04/19 05:30:32;;;;;;;5.65;4.38;;;8.70;70.50;;;;;;5015802;28;20029;-61
2021/04/19 05:32:58;;;;;;;5.47;4.55;;;8.70;70.60;;;;;;5001442;28;20037;-61
2021/04/19 05:35:23;;;;;;;6.78;4.57;;;8.70;70.60;;;;;;5002392;28;20048;-61
2021/04/19 05:37:49;;;;;;;5.97;4.90;;;8.60;70.60;;;;;;4999969;28;20041;-64
2021/04/19 05:40:16;;;;;;;5.93;4.85;;;8.60;70.60;;;;;;5003069;28;20803;-66
2021/04/19 05:42:42;;;;;;;6.07;4.75;;;8.60;70.60;;;;;;5008175;28;20036;-62
2021/04/19 05:45:08;;;;;;;6.18;4.90;;;8.60;70.60;;;;;;5012304;28;20375;-63
2021/04/19 05:47:33;;;;;;;6.50;4.95;;;8.60;70.70;;;;;;5048926;28;20132;-63
2021/04/19 05:49:59;;;;;;;6.40;5.00;;;8.60;70.70;;;;;;5050520;28;20037;-63
2021/04/19 05:52:24;;;;;;;10.43;4.40;;;8.60;70.70;;;;;;5039777;28;20435;-67
2021/04/19 05:54:50;;;;;;;6.88;4.60;;;8.60;70.70;;;;;;5041480;28;20024;-62
2021/04/19 05:57:46;;;;;;;9.52;4.72;;;8.60;70.60;;;;;;5043823;28;20028;-61
2021/04/19 06:00:17;;;;;;;6.20;4.95;;;8.60;70.60;;;;;;5053138;28;20035;-61
2021/04/19 06:03:03;;;;;;;8.80;4.88;;;8.60;70.50;;;;;;5055552;28;20047;-61
2021/04/19 06:05:35;;;;;;;9.57;5.13;;;8.60;70.80;;;;;;5054609;28;20040;-61
2021/04/19 06:08:06;;;;;;;6.57;5.43;;;8.60;70.70;;;;;;5047663;28;20141;-60
2021/04/19 06:10:38;;;;;;;8.73;5.18;;;8.60;70.60;;;;;;5055769;28;20029;-61
2021/04/19 06:13:03;;;;;;;8.23;5.90;;;8.60;70.70;;;;;;5040752;28;20041;-61
2021/04/19 06:15:29;;;;;;;9.30;5.47;;;8.60;70.60;;;;;;5034051;28;20458;-61
2021/04/19 06:17:55;;;;;;;11.75;5.60;;;8.60;70.80;;;;;;5051868;28;20513;-61
2021/04/19 06:20:21;;;;;;;20.60;5.88;;;8.60;70.90;;;;;;5049634;28;20033;-61
2021/04/19 06:22:50;;;;;;;17.95;5.68;;;8.70;70.90;;;;;;5057871;28;20025;-61
2021/04/19 06:25:17;;;;;;;18.38;5.90;;;8.70;71.00;;;;;;5050532;28;20047;-62
2021/04/19 06:27:43;;;;;;;17.70;7.00;;;8.70;71.00;;;;;;5050250;28;21014;-61
2021/04/19 06:30:12;;;;;;;20.52;5.90;;;8.80;71.00;;;;;;5048262;28;20673;-61
2021/04/19 06:32:38;;;;;;;25.50;6.47;;;8.80;71.10;;;;;;5050355;28;20056;-61
2021/04/19 06:35:04;;;;;;;27.15;6.97;;;8.80;71.00;;;;;;5040062;28;20601;-60
2021/04/19 06:37:30;;;;;;;28.45;6.57;;;8.80;70.90;;;;;;5056444;28;20050;-61
2021/04/19 06:39:55;;;;;;;71.80;9.98;;;8.90;71.10;;;;;;5042420;28;20036;-61
2021/04/19 06:42:21;;;;;;;44.03;8.10;;;8.90;71.40;;;;;;5041534;28;20068;-62
2021/04/19 06:44:46;;;;;;;59.08;9.27;;;8.80;71.50;;;;;;5050730;28;20127;-61
2021/04/19 06:47:12;;;;;;;41.28;8.57;;;8.90;71.60;;;;;;5054875;28;20049;-61
2021/04/19 06:49:37;;;;;;;41.08;8.30;;;8.90;71.90;;;;;;5052417;28;20043;-61
2021/04/19 06:52:03;;;;;;;66.10;11.02;;;8.90;71.90;;;;;;5038722;28;20039;-61
2021/04/19 06:54:29;;;;;;;40.10;9.75;;;8.90;72.70;;;;;;5051565;28;20056;-61
2021/04/19 06:56:54;;;;;;;58.70;10.02;;;8.90;72.90;;;;;;5048572;28;20040;-60
2021/04/19 06:59:21;;;;;;;65.82;10.77;;;9.00;73.20;;;;;;5034006;28;20056;-61
2021/04/19 07:01:53;;;;;;;46.08;9.13;;;9.00;72.90;;;;;;5056289;28;20033;-62
2021/04/19 07:04:26;;;;;;;52.92;9.68;;;9.00;73.20;;;;;;5051550;28;20067;-60
2021/04/19 07:06:52;;;;;;;73.90;12.60;;;9.00;73.40;;;;;;5052059;28;20506;-61
2021/04/19 07:09:28;;;;;;;46.28;10.45;;;9.10;73.90;;;;;;5054463;28;20044;-61
2021/04/19 07:12:09;;;;;;;68.90;11.52;;;9.10;73.70;;;;;;5048530;28;20029;-60
2021/04/19 07:14:37;;;;;;;88.78;13.63;;;9.10;73.90;;;;;;5056178;28;20474;-61
2021/04/19 07:17:04;;;;;;;66.80;12.25;;;9.20;74.00;;;;;;5042337;28;20029;-61
2021/04/19 07:19:31;;;;;;;48.10;11.02;;;9.20;74.40;;;;;;5049213;28;20071;-61
2021/04/19 07:21:57;;;;;;;76.28;12.32;;;9.20;74.00;;;;;;5035802;28;20907;-61
2021/04/19 07:24:26;;;;;;;68.90;11.98;;;9.20;74.00;;;;;;5051835;28;20020;-61
2021/04/19 07:26:52;;;;;;;65.40;12.52;;;9.20;74.20;;;;;;5054409;28;20025;-61
2021/04/19 07:29:18;;;;;;;64.15;11.25;;;9.20;74.10;;;;;;5055351;28;20024;-61
2021/04/19 07:31:54;;;;;;;65.80;12.43;;;9.20;74.30;;;;;;5049033;28;20495;-61
2021/04/19 07:34:20;;;;;;;62.28;12.30;;;9.30;74.90;;;;;;5054151;28;20045;-62
2021/04/19 07:36:50;;;;;;;43.75;11.65;;;9.30;75.00;;;;;;5052116;28;20599;-61
2021/04/19 07:39:17;;;;;;;71.30;14.27;;;9.30;74.50;;;;;;5050425;28;20040;-61
2021/04/19 07:41:49;;;;;;;82.28;13.15;;;9.30;74.50;;;;;;5042814;28;20063;-61
2021/04/19 07:44:38;;;;;;;56.47;13.20;;;9.30;75.00;;;;;;5054210;28;20044;-61
2021/04/19 07:47:33;;;;;;;71.20;15.73;;;9.30;75.40;;;;;;5056574;28;20071;-61
2021/04/19 07:50:15;;;;;;;48.58;13.65;;;9.40;76.10;;;;;;5048839;28;20037;-61
2021/04/19 07:53:00;;;;;;;61.45;13.73;;;9.30;76.00;;;;;;5051395;28;20128;-61
2021/04/19 07:55:30;;;;;;;66.45;14.18;;;9.40;76.10;;;;;;5052738;28;20480;-61
2021/04/19 07:57:56;;;;;;;62.90;13.82;;;9.40;75.90;;;;;;5051669;28;20036;-61
2021/04/19 08:00:32;;;;;;;70.80;13.88;;;9.40;75.90;;;;;;5049608;28;20024;-61
2021/04/19 08:03:14;;;;;;;49.72;13.23;;;9.00;76.00;;;;;;5048179;28;20115;-61
2021/04/19 08:05:51;;;;;;;63.55;14.25;;;9.50;76.60;;;;;;5065685;28;20039;-60
2021/04/19 08:08:38;;;;;;;65.03;14.48;;;9.40;76.50;;;;;;5052235;28;20517;-60
2021/04/19 08:11:07;;;;;;;96.72;18.13;;;9.50;76.30;;;;;;5049356;28;20025;-63
2021/04/19 08:13:33;;;;;;;82.35;15.60;;;9.50;76.50;;;;;;5048773;28;20526;-60
2021/04/19 08:16:18;;;;;;;77.25;15.93;;;9.50;76.60;;;;;;5042051;28;20041;-61
2021/04/19 08:18:44;;;;;;;76.95;15.70;;;9.50;76.60;;;;;;5039453;28;20040;-60
2021/04/19 08:21:10;;;;;;;67.25;14.65;;;9.50;76.60;;;;;;5052588;28;20072;-60
2021/04/19 08:23:39;;;;;;;64.90;15.60;;;9.60;76.20;;;;;;5041623;28;20744;-60
2021/04/19 08:26:05;;;;;;;59.95;15.23;;;9.60;76.60;;;;;;5053321;28;20120;-60
2021/04/19 08:28:42;;;;;;;82.80;16.48;;;9.60;76.40;;;;;;5051824;28;20128;-60
2021/04/19 08:31:08;;;;;;;70.25;15.73;;;9.60;76.60;;;;;;5039879;28;20025;-60
2021/04/19 08:33:34;;;;;;;52.65;15.48;;;9.70;76.50;;;;;;5051397;28;20016;-59
2021/04/19 08:35:59;;;;;;;68.22;15.10;;;9.70;76.40;;;;;;5034688;28;20017;-60
2021/04/19 08:38:25;;;;;;;74.10;15.82;;;9.70;76.50;;;;;;5039762;28;20040;-60
2021/04/19 08:40:50;;;;;;;70.60;14.82;;;9.70;76.30;;;;;;5052688;28;20033;-59
2021/04/19 08:43:23;;;;;;;94.82;17.13;;;9.70;76.30;;;;;;5048235;28;20105;-60
2021/04/19 08:45:49;;;;;;;94.10;15.95;;;9.80;76.30;;;;;;5048743;28;20045;-60
2021/04/19 08:48:14;;;;;;;84.13;16.65;;;9.80;76.50;;;;;;5049996;28;20093;-60
2021/04/19 08:50:41;;;;;;;73.05;16.70;;;9.80;76.60;;;;;;5040257;28;20491;-60
2021/04/19 08:53:10;;;;;;;73.15;18.35;;;9.80;76.60;;;;;;5045090;28;20048;-60
2021/04/19 08:55:36;;;;;;;78.40;17.02;;;9.80;76.60;;;;;;5053729;28;20036;-61
2021/04/19 08:58:08;;;;;;;85.32;17.27;;;9.90;76.50;;;;;;5052600;28;20040;-60
2021/04/19 09:00:34;;;;;;;70.90;16.83;;;9.90;76.70;;;;;;5041757;28;20053;-61
2021/04/19 09:02:59;;;;;;;72.05;17.15;;;9.90;76.60;;;;;;5037128;28;20059;-61
2021/04/19 09:05:25;;;;;;;99.50;18.17;;;9.90;76.50;;;;;;5033720;28;20510;-62
2021/04/19 09:08:00;;;;;;;74.18;16.52;;;10.10;76.70;;;;;;5036908;28;20068;-60
2021/04/19 09:10:26;;;;;;;92.75;17.77;;;10.10;76.80;;;;;;5040456;28;20012;-60
2021/04/19 09:12:51;;;;;;;70.45;17.10;;;10.10;76.80;;;;;;5055333;28;20025;-59
2021/04/19 09:15:28;;;;;;;92.28;19.42;;;10.10;76.60;;;;;;5043217;28;20032;-59
2021/04/19 09:18:08;;;;;;;150.90;23.48;;;10.20;76.70;;;;;;5054310;28;20527;-59
2021/04/19 09:20:43;;;;;;;119.60;19.80;;;10.20;76.50;;;;;;5053267;28;20044;-62
2021/04/19 09:23:25;;;;;;;102.30;19.40;;;10.20;76.70;;;;;;5056422;28;20032;-62
2021/04/19 09:25:51;;;;;;;98.30;19.30;;;10.30;76.70;;;;;;5059376;28;20278;-59
2021/04/19 09:28:39;;;;;;;119.80;21.60;;;10.30;76.60;;;;;;5054594;28;20037;-60
2021/04/19 09:31:04;;;;;;;104.47;19.80;;;10.30;76.50;;;;;;5056474;28;20037;-63
2021/04/19 09:33:30;;;;;;;123.00;20.00;;;10.40;76.50;;;;;;5048998;28;20059;-60
2021/04/19 09:35:55;;;;;;;132.52;22.27;;;10.40;76.30;;;;;;5044474;28;20501;-61
2021/04/19 09:38:33;;;;;;;109.32;19.77;;;10.50;76.10;;;;;;5037497;28;20472;-60
2021/04/19 09:41:12;;;;;;;131.43;21.30;;;10.50;75.80;;;;;;5053217;28;20029;-60
2021/04/19 09:43:54;;;;;;;109.30;20.15;;;10.60;75.90;;;;;;5058841;28;20032;-61
2021/04/19 09:46:19;;;;;;;104.45;18.73;;;10.60;75.80;;;;;;5044458;28;20445;-61
2021/04/19 09:48:58;;;;;;;104.50;18.67;;;10.60;75.50;;;;;;5034918;28;21070;-60
2021/04/19 09:51:28;;;;;;;133.70;23.73;;;10.70;75.20;;;;;;5035244;28;20024;-61
2021/04/19 09:54:14;;;;;;;110.70;19.75;;;10.70;75.10;;;;;;5021300;28;20040;-60
2021/04/19 09:56:48;;;;;;;146.35;21.42;;;10.80;75.00;;;;;;5019049;28;20041;-61
2021/04/19 09:59:18;;;;;;;115.97;20.05;;;10.80;75.80;;;;;;5019056;28;20137;-61
2021/04/19 10:01:48;;;;;;;93.85;19.23;;;10.90;74.80;;;;;;4993090;28;20727;-60
2021/04/19 10:04:13;;;;;;;116.53;19.73;;;10.90;74.60;;;;;;5018772;28;20032;-61
2021/04/19 10:06:46;;;;;;;128.95;19.48;;;10.90;74.60;;;;;;5038664;28;20037;-61
2021/04/19 10:09:13;;;;;;;130.45;19.77;;;11.00;74.50;;;;;;5014976;28;20114;-61
2021/04/19 10:11:47;;;;;;;111.70;19.27;;;11.00;74.20;;;;;;5030527;28;20040;-60
2021/04/19 10:14:14;;;;;;;97.72;19.38;;;11.10;74.20;;;;;;5015966;28;20665;-61
2021/04/19 10:16:45;;;;;;;104.07;20.25;;;11.10;74.00;;;;;;5008421;28;20036;-61
2021/04/19 10:19:10;;;;;;;123.45;21.52;;;11.20;73.90;;;;;;5037646;28;20036;-62
2021/04/19 10:21:37;;;;;;;124.97;19.50;;;11.20;73.70;;;;;;5005351;28;20025;-61
2021/04/19 10:24:02;;;;;;;97.63;17.08;;;11.20;73.30;;;;;;5006836;28;20102;-60
2021/04/19 10:26:29;;;;;;;84.80;18.05;;;11.30;72.70;;;;;;5018526;28;20494;-61
2021/04/19 10:28:56;;;;;;;73.03;15.40;;;11.30;72.20;;;;;;5036964;28;20036;-60
2021/04/19 10:31:21;;;;;;;86.22;15.88;;;11.40;71.70;;;;;;5003774;28;20468;-60
2021/04/19 10:33:48;;;;;;;62.85;13.07;;;11.40;70.90;;;;;;5008930;28;20025;-65
2021/04/19 10:36:16;;;;;;;46.63;11.15;;;11.40;69.50;;;;;;5021959;28;20032;-62
2021/04/19 10:38:43;;;;;;;38.60;10.93;;;11.40;68.30;;;;;;5015817;28;20065;-62
2021/04/19 10:41:08;;;;;;;63.17;12.13;;;11.50;67.70;;;;;;5022395;28;20028;-61
2021/04/19 10:43:34;;;;;;;39.05;10.80;;;11.50;67.40;;;;;;5014301;28;20037;-61
2021/04/19 10:46:00;;;;;;;64.10;13.40;;;11.50;67.20;;;;;;5033541;28;20499;-62
2021/04/19 10:48:29;;;;;;;36.13;10.05;;;11.60;67.50;;;;;;5000681;28;20037;-61
2021/04/19 10:51:17;;;;;;;34.42;10.20;;;11.60;66.70;;;;;;5016624;28;20408;-62
2021/04/19 10:53:43;;;;;;;27.48;9.07;;;11.60;66.00;;;;;;5002509;28;20364;-61
2021/04/19 10:56:09;;;;;;;35.55;9.63;;;11.70;65.20;;;;;;5016991;28;20029;-62
2021/04/19 10:58:35;;;;;;;45.22;10.50;;;11.70;65.40;;;;;;5012442;28;20024;-61
2021/04/19 11:01:01;;;;;;;45.03;10.05;;;11.80;65.00;;;;;;5016663;28;20370;-61
2021/04/19 11:03:34;;;;;;;58.90;10.68;;;11.80;64.50;;;;;;5005990;28;20473;-62
2021/04/19 11:06:07;;;;;;;36.35;9.02;;;11.90;64.40;;;;;;4998552;28;20033;-61
2021/04/19 11:08:52;;;;;;;43.13;10.23;;;12.00;64.10;;;;;;5005933;28;20082;-60
2021/04/19 11:11:25;;;;;;;42.13;9.18;;;12.00;63.60;;;;;;5014117;28;20044;-60
2021/04/19 11:13:51;;;;;;;71.93;11.35;;;12.10;63.40;;;;;;5038746;28;20077;-60
2021/04/19 11:16:21;;;;;;;28.38;7.90;;;12.20;63.60;;;;;;5004734;28;20026;-60
2021/04/19 11:18:46;;;;;;;38.35;9.15;;;12.30;62.50;;;;;;5002988;28;20086;-62
2021/04/19 11:21:34;;;;;;;83.05;13.88;;;12.30;61.80;;;;;;5029625;28;20030;-61
2021/04/19 11:24:11;;;;;;;51.65;13.95;;;12.40;63.00;;;;;;5009538;28;20414;-60
2021/04/19 11:26:37;;;;;;;80.53;13.82;;;12.50;62.90;;;;;;5019687;28;20044;-62
2021/04/19 11:29:03;;;;;;;79.00;12.73;;;12.60;63.20;;;;;;5036448;28;20028;-61
2021/04/19 11:31:41;;;;;;;63.08;12.52;;;12.60;63.50;;;;;;4995688;28;20034;-62
2021/04/19 11:34:08;;;;;;;60.92;11.70;;;12.70;63.40;;;;;;5013314;28;20493;-60
2021/04/19 11:36:41;;;;;;;57.85;12.35;;;12.70;63.10;;;;;;5029360;28;20029;-62
2021/04/19 11:39:15;;;;;;;72.75;11.70;;;12.80;62.80;;;;;;5004471;28;20032;-60
2021/04/19 11:41:41;;;;;;;71.30;11.82;;;12.80;62.30;;;;;;5004355;28;20476;-60
2021/04/19 11:44:06;;;;;;;81.20;12.57;;;12.80;62.10;;;;;;5000510;28;20040;-60
2021/04/19 11:46:32;;;;;;;79.75;13.23;;;12.90;61.80;;;;;;5027393;28;20132;-61
2021/04/19 11:48:58;;;;;;;60.53;11.23;;;12.90;61.60;;;;;;5032800;28;20039;-61
2021/04/19 11:51:23;;;;;;;53.97;11.13;;;13.00;61.70;;;;;;5051961;28;20095;-62
2021/04/19 11:53:49;;;;;;;265.38;33.38;;;12.90;61.10;;;;;;5047973;28;20362;-61
2021/04/19 11:56:16;;;;;;;52.92;11.25;;;13.00;60.50;;;;;;5047766;28;20155;-61
2021/04/19 11:58:43;;;;;;;56.13;10.85;;;13.10;60.30;;;;;;5048552;28;20029;-60
2021/04/19 12:01:13;;;;;;;69.18;9.00;;;13.10;60.50;;;;;;5051616;28;20024;-61
2021/04/19 12:03:38;;;;;;;40.45;9.07;;;13.20;60.10;;;;;;5049209;28;20036;-61
2021/04/19 12:06:07;;;;;;;41.45;8.07;;;13.20;60.00;;;;;;5039068;28;20037;-61
2021/04/19 12:08:33;;;;;;;45.55;9.10;;;13.30;60.10;;;;;;5050989;28;20426;-62
2021/04/19 12:10:59;;;;;;;38.35;8.57;;;13.40;60.20;;;;;;5050016;28;20558;-62
2021/04/19 12:13:25;;;;;;;36.53;9.05;;;13.40;59.80;;;;;;5056291;28;20028;-61
2021/04/19 12:15:52;;;;;;;40.15;8.13;;;13.50;59.50;;;;;;5046945;28;20483;-61
2021/04/19 12:18:18;;;;;;;37.13;8.85;;;13.50;59.20;;;;;;5051199;28;20025;-61
2021/04/19 12:20:44;;;;;;;35.45;7.57;;;13.40;59.00;;;;;;5037022;28;20182;-61
2021/04/19 12:23:09;;;;;;;50.60;8.93;;;13.60;59.10;;;;;;5046904;28;20587;-61
2021/04/19 12:25:35;;;;;;;48.75;8.55;;;13.60;58.40;;;;;;5051203;28;20155;-61
2021/04/19 12:28:01;;;;;;;41.03;8.65;;;13.60;58.40;;;;;;5055683;28;20482;-61
2021/04/19 12:30:27;;;;;;;48.85;9.20;;;13.70;58.50;;;;;;5054038;28;20116;-62
2021/04/19 12:32:53;;;;;;;46.83;8.23;;;13.70;58.80;;;;;;5048618;28;20041;-61
2021/04/19 12:35:20;;;;;;;44.40;9.75;;;13.70;58.90;;;;;;5041994;28;20034;-61
2021/04/19 12:37:45;;;;;;;29.58;8.60;;;13.70;58.60;;;;;;5047177;28;20456;-62
2021/04/19 12:40:11;;;;;;;52.95;8.75;;;13.80;58.30;;;;;;5031282;28;20021;-61
2021/04/19 12:42:37;;;;;;;39.55;8.93;;;13.80;58.30;;;;;;5050310;28;20784;-60
2021/04/19 12:45:02;;;;;;;31.02;9.27;;;13.80;58.40;;;;;;5048268;28;20025;-61
2021/04/19 12:47:28;;;;;;;36.33;9.85;;;13.90;58.20;;;;;;5034420;28;20048;-59
2021/04/19 12:49:53;;;;;;;39.63;8.95;;;14.00;58.60;;;;;;5028622;28;20043;-61
2021/04/19 12:52:19;;;;;;;44.78;8.98;;;14.10;58.50;;;;;;5028024;28;20040;-61